sensor_id;sensor_type;location;lat;lon;timestamp;temperature;humidity
9033;DHT22;4551;53.164;8.210;2023-03-13T00:01:27;7.70;99.90
9033;DHT22;4551;53.164;8.210;2023-03-13T00:03:56;7.70;99.90
9033;DHT22;4551;53.164;8.210;2023-03-13T00:06:29;7.70;99.90
9033;DHT22;4551;53.164;8.210;2023-03-13T00:09:03;7.70;99.90
9033;DHT22;4551;53.164;8.210;2023-03-13T00:11:31;7.70;99.90
9033;DHT22;4551;53.164;8.210;2023-03-13T00:14:06;7.70;99.90
9033;DHT22;4551;53.164;8.210;2023-03-13T00:16:38;7.70;99.90
9033;DHT22;4551;53.164;8.210;2023-03-13T00:19:08;7.70;99.90
9033;DHT22;4551;53.164;8.210;2023-03-13T00:21:36;7.70;99.90
9033;DHT22;4551;53.164;8.210;2023-03-13T00:24:08;7.70;99.90
9033;DHT22;4551;53.164;8.210;2023-03-13T00:26:36;7.70;99.90
9033;DHT22;4551;53.164;8.210;2023-03-13T00:29:06;7.70;99.90
9033;DHT22;4551;53.164;8.210;2023-03-13T00:31:34;7.70;99.90
9033;DHT22;4551;53.164;8.210;2023-03-13T00:34:08;7.70;99.90
9033;DHT22;4551;53.164;8.210;2023-03-13T00:36:39;7.80;99.90
9033;DHT22;4551;53.164;8.210;2023-03-13T00:39:08;7.70;99.90
9033;DHT22;4551;53.164;8.210;2023-03-13T00:41:36;7.70;99.90
9033;DHT22;4551;53.164;8.210;2023-03-13T00:44:04;7.70;99.90
9033;DHT22;4551;53.164;8.210;2023-03-13T00:46:34;7.80;99.90
9033;DHT22;4551;53.164;8.210;2023-03-13T00:49:02;7.70;99.90
9033;DHT22;4551;53.164;8.210;2023-03-13T00:54:16;7.80;99.90
9033;DHT22;4551;53.164;8.210;2023-03-13T00:56:44;7.80;99.90
9033;DHT22;4551;53.164;8.210;2023-03-13T00:59:12;7.80;99.90
9033;DHT22;4551;53.164;8.210;2023-03-13T01:01:43;7.80;99.90
9033;DHT22;4551;53.164;8.210;2023-03-13T01:04:11;7.80;99.90
9033;DHT22;4551;53.164;8.210;2023-03-13T01:06:40;7.80;99.90
9033;DHT22;4551;53.164;8.210;2023-03-13T01:09:09;7.80;99.90
9033;DHT22;4551;53.164;8.210;2023-03-13T01:11:40;7.80;99.90
9033;DHT22;4551;53.164;8.210;2023-03-13T01:14:13;7.90;99.90
9033;DHT22;4551;53.164;8.210;2023-03-13T01:16:41;7.80;99.90
9033;DHT22;4551;53.164;8.210;2023-03-13T01:19:10;7.80;99.90
9033;DHT22;4551;53.164;8.210;2023-03-13T01:21:39;7.80;99.90
9033;DHT22;4551;53.164;8.210;2023-03-13T01:24:07;7.80;99.90
9033;DHT22;4551;53.164;8.210;2023-03-13T01:26:36;7.80;99.90
9033;DHT22;4551;53.164;8.210;2023-03-13T01:29:05;7.80;99.90
9033;DHT22;4551;53.164;8.210;2023-03-13T01:31:33;7.80;99.90
9033;DHT22;4551;53.164;8.210;2023-03-13T01:34:03;7.80;99.90
9033;DHT22;4551;53.164;8.210;2023-03-13T01:36:31;7.70;99.90
9033;DHT22;4551;53.164;8.210;2023-03-13T01:39:00;7.70;99.90
9033;DHT22;4551;53.164;8.210;2023-03-13T01:41:29;7.70;99.90
9033;DHT22;4551;53.164;8.210;2023-03-13T01:43:57;7.70;99.90
9033;DHT22;4551;53.164;8.210;2023-03-13T01:46:27;7.70;99.90
9033;DHT22;4551;53.164;8.210;2023-03-13T01:48:58;7.70;99.90
9033;DHT22;4551;53.164;8.210;2023-03-13T01:51:29;7.70;99.90
9033;DHT22;4551;53.164;8.210;2023-03-13T01:54:00;7.70;99.90
9033;DHT22;4551;53.164;8.210;2023-03-13T01:56:31;7.70;99.90
9033;DHT22;4551;53.164;8.210;2023-03-13T01:59:01;7.70;99.90
9033;DHT22;4551;53.164;8.210;2023-03-13T02:01:31;7.70;99.90
9033;DHT22;4551;53.164;8.210;2023-03-13T02:03:59;7.70;99.90
9033;DHT22;4551;53.164;8.210;2023-03-13T02:06:28;7.70;99.90
9033;DHT22;4551;53.164;8.210;2023-03-13T02:09:01;7.70;99.90
9033;DHT22;4551;53.164;8.210;2023-03-13T02:11:34;7.70;99.90
9033;DHT22;4551;53.164;8.210;2023-03-13T02:14:03;7.70;99.90
9033;DHT22;4551;53.164;8.210;2023-03-13T02:16:33;7.70;99.90
9033;DHT22;4551;53.164;8.210;2023-03-13T02:19:02;7.70;99.90
9033;DHT22;4551;53.164;8.210;2023-03-13T02:21:35;7.70;99.90
9033;DHT22;4551;53.164;8.210;2023-03-13T02:24:08;7.70;99.90
9033;DHT22;4551;53.164;8.210;2023-03-13T02:26:41;7.70;99.90
9033;DHT22;4551;53.164;8.210;2023-03-13T02:29:09;7.70;99.90
9033;DHT22;4551;53.164;8.210;2023-03-13T02:31:44;7.80;99.90
9033;DHT22;4551;53.164;8.210;2023-03-13T02:34:13;7.80;99.90
9033;DHT22;4551;53.164;8.210;2023-03-13T02:36:42;7.80;99.90
9033;DHT22;4551;53.164;8.210;2023-03-13T02:39:11;7.80;99.90
9033;DHT22;4551;53.164;8.210;2023-03-13T02:41:42;7.80;99.90
9033;DHT22;4551;53.164;8.210;2023-03-13T02:44:11;7.80;99.90
9033;DHT22;4551;53.164;8.210;2023-03-13T02:46:43;7.80;99.90
9033;DHT22;4551;53.164;8.210;2023-03-13T02:49:18;7.80;99.90
9033;DHT22;4551;53.164;8.210;2023-03-13T02:51:46;7.80;99.90
9033;DHT22;4551;53.164;8.210;2023-03-13T02:54:16;7.80;99.90
9033;DHT22;4551;53.164;8.210;2023-03-13T02:56:46;7.80;99.90
9033;DHT22;4551;53.164;8.210;2023-03-13T02:59:15;7.80;99.90
9033;DHT22;4551;53.164;8.210;2023-03-13T03:01:43;7.80;99.90
9033;DHT22;4551;53.164;8.210;2023-03-13T03:04:11;7.80;99.90
9033;DHT22;4551;53.164;8.210;2023-03-13T03:06:39;7.90;99.90
9033;DHT22;4551;53.164;8.210;2023-03-13T03:09:09;7.90;99.90
9033;DHT22;4551;53.164;8.210;2023-03-13T03:11:37;7.80;99.90
9033;DHT22;4551;53.164;8.210;2023-03-13T03:14:07;7.90;99.90
9033;DHT22;4551;53.164;8.210;2023-03-13T03:16:36;7.90;99.90
9033;DHT22;4551;53.164;8.210;2023-03-13T03:19:04;7.90;99.90
9033;DHT22;4551;53.164;8.210;2023-03-13T03:21:34;7.90;99.90
9033;DHT22;4551;53.164;8.210;2023-03-13T03:24:02;7.90;99.90
9033;DHT22;4551;53.164;8.210;2023-03-13T03:26:30;7.90;99.90
9033;DHT22;4551;53.164;8.210;2023-03-13T03:28:58;7.90;99.90
9033;DHT22;4551;53.164;8.210;2023-03-13T03:31:28;7.90;99.90
9033;DHT22;4551;53.164;8.210;2023-03-13T03:33:57;7.90;99.90
9033;DHT22;4551;53.164;8.210;2023-03-13T03:36:25;7.90;99.90
9033;DHT22;4551;53.164;8.210;2023-03-13T03:38:53;7.90;99.90
9033;DHT22;4551;53.164;8.210;2023-03-13T03:41:21;7.90;99.90
9033;DHT22;4551;53.164;8.210;2023-03-13T03:43:49;7.90;99.90
9033;DHT22;4551;53.164;8.210;2023-03-13T03:46:21;7.90;99.90
9033;DHT22;4551;53.164;8.210;2023-03-13T03:48:51;7.90;99.90
9033;DHT22;4551;53.164;8.210;2023-03-13T03:51:20;8.00;99.90
9033;DHT22;4551;53.164;8.210;2023-03-13T03:53:48;8.00;99.90
9033;DHT22;4551;53.164;8.210;2023-03-13T03:56:16;8.00;99.90
9033;DHT22;4551;53.164;8.210;2023-03-13T03:58:46;8.00;99.90
9033;DHT22;4551;53.164;8.210;2023-03-13T04:01:14;8.00;99.90
9033;DHT22;4551;53.164;8.210;2023-03-13T04:03:42;8.10;99.90
9033;DHT22;4551;53.164;8.210;2023-03-13T04:06:12;8.00;99.90
9033;DHT22;4551;53.164;8.210;2023-03-13T04:08:40;8.10;99.90
9033;DHT22;4551;53.164;8.210;2023-03-13T04:11:08;8.10;99.90
9033;DHT22;4551;53.164;8.210;2023-03-13T04:13:36;8.10;99.90
9033;DHT22;4551;53.164;8.210;2023-03-13T04:16:07;8.10;99.90
9033;DHT22;4551;53.164;8.210;2023-03-13T04:18:36;8.10;99.90
9033;DHT22;4551;53.164;8.210;2023-03-13T04:21:04;8.20;99.90
9033;DHT22;4551;53.164;8.210;2023-03-13T04:23:34;8.20;99.90
9033;DHT22;4551;53.164;8.210;2023-03-13T04:26:01;8.20;99.90
9033;DHT22;4551;53.164;8.210;2023-03-13T04:28:30;8.20;99.90
9033;DHT22;4551;53.164;8.210;2023-03-13T04:30:57;8.20;99.90
9033;DHT22;4551;53.164;8.210;2023-03-13T04:33:27;8.20;99.90
9033;DHT22;4551;53.164;8.210;2023-03-13T04:35:56;8.30;99.90
9033;DHT22;4551;53.164;8.210;2023-03-13T04:38:24;8.30;99.90
9033;DHT22;4551;53.164;8.210;2023-03-13T04:40:53;8.30;99.90
9033;DHT22;4551;53.164;8.210;2023-03-13T04:43:27;8.30;99.90
9033;DHT22;4551;53.164;8.210;2023-03-13T04:45:57;8.40;99.90
9033;DHT22;4551;53.164;8.210;2023-03-13T04:48:25;8.40;99.90
9033;DHT22;4551;53.164;8.210;2023-03-13T04:50:53;8.40;99.90
9033;DHT22;4551;53.164;8.210;2023-03-13T04:53:21;8.50;99.90
9033;DHT22;4551;53.164;8.210;2023-03-13T04:55:49;8.50;99.90
9033;DHT22;4551;53.164;8.210;2023-03-13T04:58:19;8.50;99.90
9033;DHT22;4551;53.164;8.210;2023-03-13T05:00:46;7.60;99.90
9033;DHT22;4551;53.164;8.210;2023-03-13T05:03:14;8.50;99.90
9033;DHT22;4551;53.164;8.210;2023-03-13T05:05:42;8.60;99.90
9033;DHT22;4551;53.164;8.210;2023-03-13T05:08:10;8.60;99.90
9033;DHT22;4551;53.164;8.210;2023-03-13T05:10:41;8.60;99.90
9033;DHT22;4551;53.164;8.210;2023-03-13T05:13:10;8.70;99.90
9033;DHT22;4551;53.164;8.210;2023-03-13T05:15:39;8.70;99.90
9033;DHT22;4551;53.164;8.210;2023-03-13T05:18:07;8.80;99.90
9033;DHT22;4551;53.164;8.210;2023-03-13T05:20:35;8.80;99.90
9033;DHT22;4551;53.164;8.210;2023-03-13T05:23:03;8.80;99.90
9033;DHT22;4551;53.164;8.210;2023-03-13T05:25:31;8.90;99.90
9033;DHT22;4551;53.164;8.210;2023-03-13T05:27:59;8.90;99.90
9033;DHT22;4551;53.164;8.210;2023-03-13T05:30:27;8.90;99.90
9033;DHT22;4551;53.164;8.210;2023-03-13T05:32:57;8.90;99.90
9033;DHT22;4551;53.164;8.210;2023-03-13T05:35:25;9.00;99.90
9033;DHT22;4551;53.164;8.210;2023-03-13T05:37:53;9.00;99.90
9033;DHT22;4551;53.164;8.210;2023-03-13T05:40:24;9.00;99.90
9033;DHT22;4551;53.164;8.210;2023-03-13T05:42:52;9.10;99.90
9033;DHT22;4551;53.164;8.210;2023-03-13T05:45:20;9.10;99.90
9033;DHT22;4551;53.164;8.210;2023-03-13T05:47:49;9.20;99.90
9033;DHT22;4551;53.164;8.210;2023-03-13T05:50:19;9.20;99.90
9033;DHT22;4551;53.164;8.210;2023-03-13T05:52:47;9.20;99.90
9033;DHT22;4551;53.164;8.210;2023-03-13T05:55:15;9.30;99.90
9033;DHT22;4551;53.164;8.210;2023-03-13T05:57:43;9.30;99.90
9033;DHT22;4551;53.164;8.210;2023-03-13T06:00:12;9.40;99.90
9033;DHT22;4551;53.164;8.210;2023-03-13T06:02:42;9.40;99.90
9033;DHT22;4551;53.164;8.210;2023-03-13T06:05:10;9.50;99.90
9033;DHT22;4551;53.164;8.210;2023-03-13T06:07:39;9.50;99.90
9033;DHT22;4551;53.164;8.210;2023-03-13T06:10:08;9.50;99.90
9033;DHT22;4551;53.164;8.210;2023-03-13T06:12:36;9.60;99.90
9033;DHT22;4551;53.164;8.210;2023-03-13T06:15:04;9.60;99.90
9033;DHT22;4551;53.164;8.210;2023-03-13T06:17:37;9.60;99.90
9033;DHT22;4551;53.164;8.210;2023-03-13T06:20:06;9.70;99.90
9033;DHT22;4551;53.164;8.210;2023-03-13T06:22:34;9.70;99.90
9033;DHT22;4551;53.164;8.210;2023-03-13T06:25:04;9.80;99.90
9033;DHT22;4551;53.164;8.210;2023-03-13T06:27:32;9.80;99.90
9033;DHT22;4551;53.164;8.210;2023-03-13T06:30:01;9.90;99.90
9033;DHT22;4551;53.164;8.210;2023-03-13T06:32:29;9.90;99.90
9033;DHT22;4551;53.164;8.210;2023-03-13T06:35:01;10.00;99.90
9033;DHT22;4551;53.164;8.210;2023-03-13T06:37:30;10.00;99.90
9033;DHT22;4551;53.164;8.210;2023-03-13T06:39:59;10.10;99.90
9033;DHT22;4551;53.164;8.210;2023-03-13T06:42:28;10.20;99.90
9033;DHT22;4551;53.164;8.210;2023-03-13T06:44:56;10.20;99.90
9033;DHT22;4551;53.164;8.210;2023-03-13T06:47:24;10.20;99.90
9033;DHT22;4551;53.164;8.210;2023-03-13T06:49:53;10.30;99.90
9033;DHT22;4551;53.164;8.210;2023-03-13T06:52:21;10.30;99.90
9033;DHT22;4551;53.164;8.210;2023-03-13T06:55:07;10.40;99.90
9033;DHT22;4551;53.164;8.210;2023-03-13T06:57:38;10.40;99.90
9033;DHT22;4551;53.164;8.210;2023-03-13T07:00:07;10.50;99.90
9033;DHT22;4551;53.164;8.210;2023-03-13T07:02:37;10.50;99.90
9033;DHT22;4551;53.164;8.210;2023-03-13T07:05:05;10.60;99.90
9033;DHT22;4551;53.164;8.210;2023-03-13T07:07:34;10.60;99.90
9033;DHT22;4551;53.164;8.210;2023-03-13T07:10:03;10.60;99.90
9033;DHT22;4551;53.164;8.210;2023-03-13T07:12:31;10.70;99.90
9033;DHT22;4551;53.164;8.210;2023-03-13T07:15:00;10.70;99.90
9033;DHT22;4551;53.164;8.210;2023-03-13T07:17:28;10.70;99.90
9033;DHT22;4551;53.164;8.210;2023-03-13T07:19:56;10.80;99.90
9033;DHT22;4551;53.164;8.210;2023-03-13T07:22:24;10.80;99.90
9033;DHT22;4551;53.164;8.210;2023-03-13T07:24:52;10.80;99.90
9033;DHT22;4551;53.164;8.210;2023-03-13T07:27:22;10.90;99.90
9033;DHT22;4551;53.164;8.210;2023-03-13T07:29:50;10.90;99.90
9033;DHT22;4551;53.164;8.210;2023-03-13T07:32:19;10.90;99.90
9033;DHT22;4551;53.164;8.210;2023-03-13T07:34:47;10.90;99.90
9033;DHT22;4551;53.164;8.210;2023-03-13T07:37:15;11.00;99.90
9033;DHT22;4551;53.164;8.210;2023-03-13T07:39:43;11.10;99.90
9033;DHT22;4551;53.164;8.210;2023-03-13T07:42:11;11.10;99.90
9033;DHT22;4551;53.164;8.210;2023-03-13T07:44:39;11.10;99.90
9033;DHT22;4551;53.164;8.210;2023-03-13T07:47:07;11.10;99.90
9033;DHT22;4551;53.164;8.210;2023-03-13T07:49:37;11.20;99.90
9033;DHT22;4551;53.164;8.210;2023-03-13T07:52:09;11.20;99.90
9033;DHT22;4551;53.164;8.210;2023-03-13T07:54:38;11.20;99.90
9033;DHT22;4551;53.164;8.210;2023-03-13T07:57:06;10.40;99.90
9033;DHT22;4551;53.164;8.210;2023-03-13T07:59:34;11.30;99.90
9033;DHT22;4551;53.164;8.210;2023-03-13T08:02:02;11.30;99.90
9033;DHT22;4551;53.164;8.210;2023-03-13T08:04:31;11.30;99.90
9033;DHT22;4551;53.164;8.210;2023-03-13T08:07:00;11.30;99.90
9033;DHT22;4551;53.164;8.210;2023-03-13T08:09:30;11.40;99.90
9033;DHT22;4551;53.164;8.210;2023-03-13T08:11:58;11.50;99.90
9033;DHT22;4551;53.164;8.210;2023-03-13T08:14:26;11.40;99.90
9033;DHT22;4551;53.164;8.210;2023-03-13T08:16:54;11.40;99.90
9033;DHT22;4551;53.164;8.210;2023-03-13T08:19:22;11.40;99.90
9033;DHT22;4551;53.164;8.210;2023-03-13T08:21:50;11.40;99.90
9033;DHT22;4551;53.164;8.210;2023-03-13T08:24:20;11.40;99.90
9033;DHT22;4551;53.164;8.210;2023-03-13T08:26:48;11.40;99.90
9033;DHT22;4551;53.164;8.210;2023-03-13T08:29:17;11.40;99.90
9033;DHT22;4551;53.164;8.210;2023-03-13T08:31:45;11.40;99.90
9033;DHT22;4551;53.164;8.210;2023-03-13T08:34:14;11.40;99.90
9033;DHT22;4551;53.164;8.210;2023-03-13T08:36:42;11.40;99.90
9033;DHT22;4551;53.164;8.210;2023-03-13T08:39:11;11.40;99.90
9033;DHT22;4551;53.164;8.210;2023-03-13T08:41:41;11.40;99.90
9033;DHT22;4551;53.164;8.210;2023-03-13T08:44:10;11.40;99.90
9033;DHT22;4551;53.164;8.210;2023-03-13T08:46:38;11.50;99.90
9033;DHT22;4551;53.164;8.210;2023-03-13T08:49:06;11.50;99.90
9033;DHT22;4551;53.164;8.210;2023-03-13T08:51:35;11.50;99.90
9033;DHT22;4551;53.164;8.210;2023-03-13T08:54:04;11.50;99.90
9033;DHT22;4551;53.164;8.210;2023-03-13T08:56:32;11.60;99.90
9033;DHT22;4551;53.164;8.210;2023-03-13T08:59:03;11.60;99.90
9033;DHT22;4551;53.164;8.210;2023-03-13T09:01:32;11.60;99.90
9033;DHT22;4551;53.164;8.210;2023-03-13T09:04:00;11.70;99.90
9033;DHT22;4551;53.164;8.210;2023-03-13T09:06:30;11.70;99.90
9033;DHT22;4551;53.164;8.210;2023-03-13T09:08:59;11.70;99.90
9033;DHT22;4551;53.164;8.210;2023-03-13T09:11:27;11.70;99.90
9033;DHT22;4551;53.164;8.210;2023-03-13T09:13:55;11.70;99.90
9033;DHT22;4551;53.164;8.210;2023-03-13T09:16:26;11.70;99.90
9033;DHT22;4551;53.164;8.210;2023-03-13T09:18:55;11.70;99.90
9033;DHT22;4551;53.164;8.210;2023-03-13T09:21:23;11.70;99.90
9033;DHT22;4551;53.164;8.210;2023-03-13T09:23:52;11.70;99.90
9033;DHT22;4551;53.164;8.210;2023-03-13T09:26:20;11.70;99.90
9033;DHT22;4551;53.164;8.210;2023-03-13T09:28:49;11.70;99.90
9033;DHT22;4551;53.164;8.210;2023-03-13T09:31:18;11.70;99.90
9033;DHT22;4551;53.164;8.210;2023-03-13T09:33:48;11.80;99.90
9033;DHT22;4551;53.164;8.210;2023-03-13T09:36:17;11.80;99.90
9033;DHT22;4551;53.164;8.210;2023-03-13T09:38:48;11.90;99.90
9033;DHT22;4551;53.164;8.210;2023-03-13T09:41:21;11.90;99.90
9033;DHT22;4551;53.164;8.210;2023-03-13T09:43:50;11.90;99.90
9033;DHT22;4551;53.164;8.210;2023-03-13T09:46:21;11.90;99.90
9033;DHT22;4551;53.164;8.210;2023-03-13T09:48:53;12.00;99.90
9033;DHT22;4551;53.164;8.210;2023-03-13T09:51:24;12.10;99.90
9033;DHT22;4551;53.164;8.210;2023-03-13T09:53:55;12.10;99.90
9033;DHT22;4551;53.164;8.210;2023-03-13T09:56:24;12.20;99.90
9033;DHT22;4551;53.164;8.210;2023-03-13T09:58:55;12.20;99.90
9033;DHT22;4551;53.164;8.210;2023-03-13T10:01:26;12.20;99.90
9033;DHT22;4551;53.164;8.210;2023-03-13T10:03:59;12.30;99.90
9033;DHT22;4551;53.164;8.210;2023-03-13T10:06:29;12.30;99.90
9033;DHT22;4551;53.164;8.210;2023-03-13T10:09:00;12.40;99.90
9033;DHT22;4551;53.164;8.210;2023-03-13T10:11:28;12.50;99.90
9033;DHT22;4551;53.164;8.210;2023-03-13T10:14:01;12.50;99.90
9033;DHT22;4551;53.164;8.210;2023-03-13T10:16:31;12.40;99.90
9033;DHT22;4551;53.164;8.210;2023-03-13T10:19:08;12.60;99.90
9033;DHT22;4551;53.164;8.210;2023-03-13T10:21:37;12.60;99.90
9033;DHT22;4551;53.164;8.210;2023-03-13T10:24:12;12.70;99.90
9033;DHT22;4551;53.164;8.210;2023-03-13T10:26:41;12.80;99.90
9033;DHT22;4551;53.164;8.210;2023-03-13T10:29:18;12.90;99.90
9033;DHT22;4551;53.164;8.210;2023-03-13T10:31:48;12.90;99.90
9033;DHT22;4551;53.164;8.210;2023-03-13T10:34:18;13.00;99.90
9033;DHT22;4551;53.164;8.210;2023-03-13T10:36:47;13.10;99.90
9033;DHT22;4551;53.164;8.210;2023-03-13T10:39:16;13.10;99.90
9033;DHT22;4551;53.164;8.210;2023-03-13T10:41:44;13.20;99.90
9033;DHT22;4551;53.164;8.210;2023-03-13T10:44:16;13.20;99.90
9033;DHT22;4551;53.164;8.210;2023-03-13T10:46:45;13.30;99.90
9033;DHT22;4551;53.164;8.210;2023-03-13T10:49:14;13.30;99.90
9033;DHT22;4551;53.164;8.210;2023-03-13T10:51:47;13.40;99.90
9033;DHT22;4551;53.164;8.210;2023-03-13T10:54:20;13.40;99.90
9033;DHT22;4551;53.164;8.210;2023-03-13T10:56:49;13.40;99.90
9033;DHT22;4551;53.164;8.210;2023-03-13T10:59:18;13.40;99.90
9033;DHT22;4551;53.164;8.210;2023-03-13T11:01:47;13.40;99.90
9033;DHT22;4551;53.164;8.210;2023-03-13T11:04:19;13.40;99.90
9033;DHT22;4551;53.164;8.210;2023-03-13T11:06:50;13.50;99.90
9033;DHT22;4551;53.164;8.210;2023-03-13T11:09:19;13.60;99.90
9033;DHT22;4551;53.164;8.210;2023-03-13T11:11:48;13.70;99.90
9033;DHT22;4551;53.164;8.210;2023-03-13T11:14:16;13.80;99.90
9033;DHT22;4551;53.164;8.210;2023-03-13T11:16:51;13.80;99.90
9033;DHT22;4551;53.164;8.210;2023-03-13T11:19:29;13.70;99.90
9033;DHT22;4551;53.164;8.210;2023-03-13T11:22:09;13.70;99.90
9033;DHT22;4551;53.164;8.210;2023-03-13T11:24:45;13.80;99.90
9033;DHT22;4551;53.164;8.210;2023-03-13T11:27:18;13.70;99.90
9033;DHT22;4551;53.164;8.210;2023-03-13T11:29:51;13.70;99.90
9033;DHT22;4551;53.164;8.210;2023-03-13T11:32:22;13.70;99.90
9033;DHT22;4551;53.164;8.210;2023-03-13T11:34:51;13.70;99.90
9033;DHT22;4551;53.164;8.210;2023-03-13T11:37:23;13.70;99.90
9033;DHT22;4551;53.164;8.210;2023-03-13T11:39:56;13.70;99.90
9033;DHT22;4551;53.164;8.210;2023-03-13T11:42:31;13.70;99.90
9033;DHT22;4551;53.164;8.210;2023-03-13T11:45:02;13.70;99.90
9033;DHT22;4551;53.164;8.210;2023-03-13T11:47:36;13.80;99.90
9033;DHT22;4551;53.164;8.210;2023-03-13T11:50:13;13.80;99.90
9033;DHT22;4551;53.164;8.210;2023-03-13T11:52:47;13.90;99.90
9033;DHT22;4551;53.164;8.210;2023-03-13T11:55:28;14.00;99.90
9033;DHT22;4551;53.164;8.210;2023-03-13T11:58:03;14.00;99.90
9033;DHT22;4551;53.164;8.210;2023-03-13T12:00:33;14.20;99.90
9033;DHT22;4551;53.164;8.210;2023-03-13T12:03:04;14.30;99.90
9033;DHT22;4551;53.164;8.210;2023-03-13T12:05:36;14.50;99.90
9033;DHT22;4551;53.164;8.210;2023-03-13T12:08:08;14.60;99.90
9033;DHT22;4551;53.164;8.210;2023-03-13T12:10:38;14.80;99.90
9033;DHT22;4551;53.164;8.210;2023-03-13T12:13:09;14.80;99.90
9033;DHT22;4551;53.164;8.210;2023-03-13T12:15:40;14.90;99.90
9033;DHT22;4551;53.164;8.210;2023-03-13T12:18:11;15.00;99.90
9033;DHT22;4551;53.164;8.210;2023-03-13T12:20:43;15.00;99.90
9033;DHT22;4551;53.164;8.210;2023-03-13T12:23:17;15.10;99.90
9033;DHT22;4551;53.164;8.210;2023-03-13T12:25:47;15.10;99.90
9033;DHT22;4551;53.164;8.210;2023-03-13T12:28:22;15.10;99.90
9033;DHT22;4551;53.164;8.210;2023-03-13T12:30:55;15.20;99.90
9033;DHT22;4551;53.164;8.210;2023-03-13T12:33:28;15.20;99.90
9033;DHT22;4551;53.164;8.210;2023-03-13T12:35:59;15.20;99.90
9033;DHT22;4551;53.164;8.210;2023-03-13T12:38:32;15.30;99.90
9033;DHT22;4551;53.164;8.210;2023-03-13T12:41:05;15.40;99.90
9033;DHT22;4551;53.164;8.210;2023-03-13T12:43:35;15.60;99.90
9033;DHT22;4551;53.164;8.210;2023-03-13T12:46:11;15.60;99.90
9033;DHT22;4551;53.164;8.210;2023-03-13T12:51:33;15.60;99.90
9033;DHT22;4551;53.164;8.210;2023-03-13T12:57:09;15.70;99.90
9033;DHT22;4551;53.164;8.210;2023-03-13T12:59:42;15.80;99.90
9033;DHT22;4551;53.164;8.210;2023-03-13T13:02:14;16.00;99.90
9033;DHT22;4551;53.164;8.210;2023-03-13T13:04:44;16.00;99.90
9033;DHT22;4551;53.164;8.210;2023-03-13T13:07:20;16.10;99.90
9033;DHT22;4551;53.164;8.210;2023-03-13T13:10:03;16.20;99.90
9033;DHT22;4551;53.164;8.210;2023-03-13T13:12:42;16.30;99.90
9033;DHT22;4551;53.164;8.210;2023-03-13T13:15:13;16.30;99.90
9033;DHT22;4551;53.164;8.210;2023-03-13T13:20:42;16.70;99.90
9033;DHT22;4551;53.164;8.210;2023-03-13T13:35:19;17.00;99.90
9033;DHT22;4551;53.164;8.210;2023-03-13T13:37:48;16.70;99.90
9033;DHT22;4551;53.164;8.210;2023-03-13T13:40:19;16.70;99.90
9033;DHT22;4551;53.164;8.210;2023-03-13T13:42:51;16.60;99.90
9033;DHT22;4551;53.164;8.210;2023-03-13T13:45:20;16.60;99.90
9033;DHT22;4551;53.164;8.210;2023-03-13T13:48:05;17.00;99.90
9033;DHT22;4551;53.164;8.210;2023-03-13T13:50:40;17.20;99.90
9033;DHT22;4551;53.164;8.210;2023-03-13T13:53:31;17.60;99.90
9033;DHT22;4551;53.164;8.210;2023-03-13T13:56:00;18.00;99.90
9033;DHT22;4551;53.164;8.210;2023-03-13T13:58:35;17.80;99.90
9033;DHT22;4551;53.164;8.210;2023-03-13T14:01:06;17.60;99.90
9033;DHT22;4551;53.164;8.210;2023-03-13T14:03:37;17.30;99.90
9033;DHT22;4551;53.164;8.210;2023-03-13T14:06:14;17.10;99.90
9033;DHT22;4551;53.164;8.210;2023-03-13T14:08:43;17.00;99.90
9033;DHT22;4551;53.164;8.210;2023-03-13T14:11:22;17.30;99.90
9033;DHT22;4551;53.164;8.210;2023-03-13T14:14:10;17.90;99.90
9033;DHT22;4551;53.164;8.210;2023-03-13T14:16:43;18.20;99.90
9033;DHT22;4551;53.164;8.210;2023-03-13T14:19:23;18.60;99.90
9033;DHT22;4551;53.164;8.210;2023-03-13T14:21:57;18.30;99.90
9033;DHT22;4551;53.164;8.210;2023-03-13T14:24:25;18.20;99.90
9033;DHT22;4551;53.164;8.210;2023-03-13T14:26:53;18.10;99.90
9033;DHT22;4551;53.164;8.210;2023-03-13T14:29:22;18.10;99.90
9033;DHT22;4551;53.164;8.210;2023-03-13T14:31:52;18.30;99.90
9033;DHT22;4551;53.164;8.210;2023-03-13T14:34:21;18.30;99.90
9033;DHT22;4551;53.164;8.210;2023-03-13T14:36:49;18.10;99.90
9033;DHT22;4551;53.164;8.210;2023-03-13T14:39:20;18.00;99.90
9033;DHT22;4551;53.164;8.210;2023-03-13T14:41:50;17.80;99.90
9033;DHT22;4551;53.164;8.210;2023-03-13T14:44:22;17.60;99.90
9033;DHT22;4551;53.164;8.210;2023-03-13T14:46:52;17.40;99.90
9033;DHT22;4551;53.164;8.210;2023-03-13T14:49:22;17.20;99.90
9033;DHT22;4551;53.164;8.210;2023-03-13T14:51:56;17.10;99.90
9033;DHT22;4551;53.164;8.210;2023-03-13T14:54:27;17.00;99.90
9033;DHT22;4551;53.164;8.210;2023-03-13T14:57:11;17.20;99.90
9033;DHT22;4551;53.164;8.210;2023-03-13T14:59:40;17.50;99.90
9033;DHT22;4551;53.164;8.210;2023-03-13T15:02:13;18.20;99.90
9033;DHT22;4551;53.164;8.210;2023-03-13T15:04:55;18.50;99.90
9033;DHT22;4551;53.164;8.210;2023-03-13T15:07:25;18.20;99.90
9033;DHT22;4551;53.164;8.210;2023-03-13T15:09:59;17.70;99.90
9033;DHT22;4551;53.164;8.210;2023-03-13T15:12:27;17.80;99.90
9033;DHT22;4551;53.164;8.210;2023-03-13T15:14:59;17.70;99.90
9033;DHT22;4551;53.164;8.210;2023-03-13T15:17:27;17.50;99.90
9033;DHT22;4551;53.164;8.210;2023-03-13T15:19:58;17.60;99.90
9033;DHT22;4551;53.164;8.210;2023-03-13T15:22:27;17.50;99.90
9033;DHT22;4551;53.164;8.210;2023-03-13T15:24:56;17.50;99.90
9033;DHT22;4551;53.164;8.210;2023-03-13T15:27:36;17.60;99.90
9033;DHT22;4551;53.164;8.210;2023-03-13T15:30:05;17.70;99.90
9033;DHT22;4551;53.164;8.210;2023-03-13T15:32:34;17.80;99.90
9033;DHT22;4551;53.164;8.210;2023-03-13T15:35:07;17.80;99.90
9033;DHT22;4551;53.164;8.210;2023-03-13T15:37:38;17.90;99.90
9033;DHT22;4551;53.164;8.210;2023-03-13T15:40:12;17.80;99.90
9033;DHT22;4551;53.164;8.210;2023-03-13T15:42:42;17.70;99.90
9033;DHT22;4551;53.164;8.210;2023-03-13T15:45:10;17.70;99.90
9033;DHT22;4551;53.164;8.210;2023-03-13T15:47:38;17.60;99.90
9033;DHT22;4551;53.164;8.210;2023-03-13T15:50:08;17.50;99.90
9033;DHT22;4551;53.164;8.210;2023-03-13T15:52:38;17.40;99.90
9033;DHT22;4551;53.164;8.210;2023-03-13T15:55:06;17.30;99.90
9033;DHT22;4551;53.164;8.210;2023-03-13T15:57:35;17.20;99.90
9033;DHT22;4551;53.164;8.210;2023-03-13T16:00:09;17.10;99.90
9033;DHT22;4551;53.164;8.210;2023-03-13T16:02:38;17.00;99.90
9033;DHT22;4551;53.164;8.210;2023-03-13T16:05:07;16.90;99.90
9033;DHT22;4551;53.164;8.210;2023-03-13T16:07:38;16.80;99.90
9033;DHT22;4551;53.164;8.210;2023-03-13T16:10:11;16.70;99.90
9033;DHT22;4551;53.164;8.210;2023-03-13T16:12:41;16.60;99.90
9033;DHT22;4551;53.164;8.210;2023-03-13T16:15:10;16.60;99.90
9033;DHT22;4551;53.164;8.210;2023-03-13T16:17:38;16.50;99.90
9033;DHT22;4551;53.164;8.210;2023-03-13T16:20:10;16.40;99.90
9033;DHT22;4551;53.164;8.210;2023-03-13T16:22:39;16.40;99.90
9033;DHT22;4551;53.164;8.210;2023-03-13T16:25:07;16.30;99.90
9033;DHT22;4551;53.164;8.210;2023-03-13T16:27:35;16.30;99.90
9033;DHT22;4551;53.164;8.210;2023-03-13T16:30:05;16.30;99.90
9033;DHT22;4551;53.164;8.210;2023-03-13T16:32:35;16.40;99.90
9033;DHT22;4551;53.164;8.210;2023-03-13T16:35:10;16.50;99.90
9033;DHT22;4551;53.164;8.210;2023-03-13T16:37:38;16.60;99.90
9033;DHT22;4551;53.164;8.210;2023-03-13T16:40:13;16.60;99.90
9033;DHT22;4551;53.164;8.210;2023-03-13T16:42:42;16.70;99.90
9033;DHT22;4551;53.164;8.210;2023-03-13T16:45:10;16.60;99.90
9033;DHT22;4551;53.164;8.210;2023-03-13T16:47:40;16.50;99.90
9033;DHT22;4551;53.164;8.210;2023-03-13T16:50:13;16.30;99.90